createdAt,value
2019-03-29T00:00:08.943Z,49.47
2019-03-29T00:02:39.806Z,51.80
2019-03-29T00:05:09.074Z,50.70
2019-03-29T00:07:40.014Z,49.73
2019-03-29T00:10:09.220Z,53.50
2019-03-29T00:12:38.463Z,49.70
2019-03-29T00:15:08.082Z,47.70
2019-03-29T00:17:37.582Z,49.40
2019-03-29T00:20:07.626Z,49.37
2019-03-29T00:22:36.881Z,54.37
2019-03-29T00:25:07.095Z,49.47
2019-03-29T00:27:36.630Z,48.33
2019-03-29T00:30:05.899Z,51.47
2019-03-29T00:32:35.147Z,51.27
2019-03-29T00:35:06.354Z,49.93
2019-03-29T00:37:35.593Z,46.40
2019-03-29T00:40:07.005Z,47.30
2019-03-29T00:42:36.278Z,45.93
2019-03-29T00:45:07.228Z,45.03
2019-03-29T00:47:36.470Z,51.70
2019-03-29T00:50:07.075Z,48.27
2019-03-29T00:52:36.529Z,50.23
2019-03-29T00:55:06.646Z,54.80
2019-03-29T00:57:35.918Z,51.63
2019-03-29T04:02:36.918Z,53.10
2019-03-29T04:05:07.369Z,48.47
2019-03-29T04:07:38.402Z,50.43
2019-03-29T04:10:07.625Z,55.13
2019-03-29T04:12:36.869Z,45.03
2019-03-29T04:15:06.408Z,51.47
2019-03-29T04:17:35.642Z,49.93
2019-03-29T04:20:06.555Z,49.93
2019-03-29T04:22:35.800Z,54.20
2019-03-29T04:25:06.513Z,46.20
2019-03-29T04:27:35.766Z,54.97
2019-03-29T04:30:05.770Z,46.50
2019-03-29T04:32:35.005Z,52.30
2019-03-29T04:35:04.379Z,53.63
2019-03-29T04:37:33.595Z,50.67
2019-03-29T04:40:08.094Z,44.43
2019-03-29T04:42:34.313Z,48.53
2019-03-29T04:45:04.945Z,48.20
2019-03-29T04:47:34.456Z,48.03
2019-03-29T04:50:05.575Z,45.53
2019-03-29T04:52:34.821Z,46.30
2019-03-29T04:55:05.604Z,42.27
2019-03-29T04:57:34.870Z,46.30
2019-03-29T05:00:05.755Z,44.57
2019-03-29T05:02:35.023Z,40.93
2019-03-29T05:05:05.801Z,41.93
2019-03-29T05:07:37.248Z,47.37
2019-03-29T05:10:20.259Z,43.17
2019-03-29T05:12:38.614Z,41.40
2019-03-29T05:15:07.857Z,38.10
2019-03-29T05:17:37.190Z,40.50
2019-03-29T05:20:06.884Z,32.30
2019-03-29T05:22:36.146Z,35.43
2019-03-29T05:25:05.862Z,26.40
2019-03-29T05:27:35.122Z,37.23
2019-03-29T05:30:05.611Z,32.70
2019-03-29T05:32:34.869Z,34.60
2019-03-29T05:35:05.750Z,40.40
2019-03-29T05:37:35.017Z,80.47
2019-03-29T05:40:06.597Z,115.67
2019-03-29T05:42:35.870Z,67.27
2019-03-29T05:45:06.691Z,44.50
2019-03-29T05:47:35.951Z,36.93
2019-03-29T05:50:06.830Z,32.60
2019-03-29T05:52:36.098Z,29.80
2019-03-29T05:55:06.534Z,36.70
2019-03-29T05:57:35.798Z,46.93
2019-03-29T06:00:09.801Z,38.17
2019-03-29T06:02:39.125Z,60.80
2019-03-29T06:05:08.367Z,55.60
2019-03-29T06:07:37.629Z,57.70
2019-03-29T06:10:06.875Z,52.77
2019-03-29T06:12:36.203Z,49.27
2019-03-29T06:15:06.486Z,36.87
2019-03-29T06:17:48.074Z,35.57
2019-03-29T06:20:06.632Z,32.73
2019-03-29T06:22:35.889Z,31.53
2019-03-29T06:25:06.700Z,33.57
2019-03-29T06:27:35.976Z,32.90
2019-03-29T06:30:06.455Z,36.60
2019-03-29T06:32:35.724Z,31.83
2019-03-29T06:35:07.693Z,36.30
2019-03-29T06:37:37.670Z,31.77
2019-03-29T06:40:09.839Z,33.20
2019-03-29T06:42:39.082Z,35.70
2019-03-29T06:45:09.973Z,28.53
2019-03-29T06:47:39.224Z,37.27
2019-03-29T06:50:08.486Z,30.93
2019-03-29T06:52:37.726Z,31.63
2019-03-29T06:55:06.998Z,29.93
2019-03-29T06:57:36.238Z,26.63
2019-03-29T07:00:05.774Z,28.50
2019-03-29T07:02:35.020Z,37.13
2019-03-29T07:05:05.525Z,38.57
2019-03-29T07:07:34.762Z,35.00
2019-03-29T07:10:05.975Z,29.83
2019-03-29T07:12:36.186Z,36.07
2019-03-29T07:15:08.374Z,45.20
2019-03-29T07:17:37.619Z,39.23
2019-03-29T07:20:07.251Z,31.20
2019-03-29T07:22:36.499Z,31.77
2019-03-29T07:25:07.869Z,29.13
2019-03-29T07:27:44.627Z,25.07
2019-03-29T07:30:08.062Z,22.07
2019-03-29T07:32:38.387Z,20.73
2019-03-29T07:35:07.646Z,15.90
2019-03-29T07:37:36.889Z,16.70
2019-03-29T07:40:06.159Z,16.20
2019-03-29T07:42:35.400Z,18.27
2019-03-29T07:45:10.057Z,16.83
2019-03-29T07:47:38.930Z,16.23
2019-03-29T07:50:08.199Z,13.27
2019-03-29T07:52:37.439Z,18.47
2019-03-29T07:55:07.338Z,14.20
2019-03-29T07:57:36.576Z,13.47
2019-03-29T08:00:07.235Z,12.60
2019-03-29T08:02:36.419Z,11.33
2019-03-29T08:05:06.244Z,12.67
2019-03-29T08:07:36.445Z,8.93
2019-03-29T08:10:06.275Z,10.23
2019-03-29T08:12:35.526Z,10.97
2019-03-29T08:15:09.268Z,7.40
2019-03-29T08:17:37.023Z,8.07
2019-03-29T08:20:37.571Z,6.67
2019-03-29T08:22:37.141Z,7.03
2019-03-29T08:25:06.411Z,8.60
2019-03-29T08:27:35.646Z,6.40
2019-03-29T08:30:05.549Z,5.73
2019-03-29T08:32:34.781Z,6.23
2019-03-29T08:35:05.687Z,4.37
2019-03-29T08:37:34.931Z,5.10
2019-03-29T08:40:04.835Z,7.07
2019-03-29T08:42:34.065Z,6.30
2019-03-29T08:45:04.062Z,5.30
2019-03-29T08:47:34.274Z,4.30
2019-03-29T08:50:05.499Z,5.23
2019-03-29T08:52:34.739Z,7.03
2019-03-29T08:55:05.714Z,4.03
2019-03-29T08:57:34.978Z,5.67
2019-03-29T09:00:06.254Z,4.30
2019-03-29T09:02:35.826Z,4.60
2019-03-29T09:05:05.439Z,3.40
2019-03-29T09:07:44.570Z,4.07
2019-03-29T09:10:08.893Z,4.67
2019-03-29T09:12:38.153Z,4.10
2019-03-29T09:15:07.389Z,3.90
2019-03-29T09:17:36.659Z,4.37
2019-03-29T09:20:05.907Z,5.63
2019-03-29T09:22:35.180Z,5.63
2019-03-29T09:25:05.454Z,2.80
2019-03-29T09:27:34.729Z,3.27
2019-03-29T09:30:05.577Z,3.70
2019-03-29T09:32:34.838Z,2.70
2019-03-29T09:35:05.115Z,2.83
2019-03-29T09:37:34.378Z,3.03
2019-03-29T09:40:04.654Z,3.57
2019-03-29T09:42:33.920Z,3.03
2019-03-29T09:45:03.830Z,2.37
2019-03-29T09:47:39.882Z,2.53
2019-03-29T09:50:06.312Z,4.50
2019-03-29T09:52:37.182Z,1.53
2019-03-29T09:55:06.427Z,2.00
2019-03-29T09:57:37.921Z,2.30
2019-03-29T10:00:17.901Z,1.97
2019-03-29T10:02:38.278Z,3.90
2019-03-29T10:05:07.511Z,3.07
2019-03-29T10:07:36.774Z,3.53
2019-03-29T10:10:25.443Z,2.40
2019-03-29T10:12:54.702Z,3.50
2019-03-29T10:15:23.947Z,3.27
2019-03-29T10:17:53.213Z,4.63
2019-03-29T10:20:23.429Z,7.17
2019-03-29T10:22:52.690Z,2.93
2019-03-29T10:25:21.933Z,3.07
2019-03-29T10:27:51.193Z,3.70
2019-03-29T10:30:46.682Z,3.03
2019-03-29T10:33:15.486Z,4.57
2019-03-29T10:35:52.153Z,4.53
2019-03-29T10:38:18.341Z,7.67
2019-03-29T10:40:46.478Z,3.63
2019-03-29T10:43:15.739Z,4.00
2019-03-29T10:45:44.979Z,4.27
2019-03-29T10:48:14.253Z,2.83
2019-03-29T10:50:43.491Z,4.43
2019-03-29T10:53:12.767Z,3.57
2019-03-29T10:55:42.003Z,2.80
2019-03-29T10:58:11.265Z,4.37
2019-03-29T11:00:40.950Z,4.60
2019-03-29T11:03:10.229Z,2.97
2019-03-29T11:05:39.450Z,2.93
2019-03-29T11:08:12.104Z,3.83
2019-03-29T11:10:40.718Z,2.83
2019-03-29T11:13:14.156Z,3.00
2019-03-29T11:15:40.833Z,3.07
2019-03-29T11:18:10.111Z,4.10
2019-03-29T11:20:39.354Z,3.37
2019-03-29T11:23:08.620Z,4.80
2019-03-29T11:25:37.858Z,4.73
2019-03-29T11:28:07.130Z,4.00
2019-03-29T11:30:42.458Z,3.53
2019-03-29T11:33:07.254Z,3.13
2019-03-29T11:35:36.498Z,4.43
2019-03-29T11:38:05.765Z,4.13
2019-03-29T11:40:35.184Z,3.67
2019-03-29T11:43:05.355Z,4.80
2019-03-29T11:45:34.529Z,2.93
2019-03-29T11:48:08.875Z,4.03
2019-03-29T11:50:34.918Z,4.47
2019-03-29T11:53:04.106Z,4.87
2019-03-29T11:55:33.602Z,4.70
2019-03-29T11:58:03.575Z,5.13
2019-03-29T12:00:35.142Z,5.03
2019-03-29T12:03:04.757Z,4.67
2019-03-29T12:05:36.200Z,5.07
2019-03-29T12:08:05.242Z,4.27
2019-03-29T12:10:34.507Z,3.90
2019-03-29T12:13:03.819Z,6.00
2019-03-29T12:15:33.252Z,4.43
2019-03-29T12:18:02.491Z,3.50
2019-03-29T12:20:31.753Z,6.20
2019-03-29T12:23:02.631Z,4.13
2019-03-29T12:25:44.919Z,5.50
2019-03-29T12:28:14.222Z,4.63
2019-03-29T12:30:43.486Z,3.77
2019-03-29T12:33:12.730Z,4.80
2019-03-29T12:35:41.987Z,4.50
2019-03-29T12:38:11.227Z,8.80
2019-03-29T12:40:40.491Z,3.20
2019-03-29T12:43:12.360Z,3.87
2019-03-29T12:45:40.607Z,3.73
2019-03-29T12:48:10.216Z,4.07
2019-03-29T12:50:39.478Z,3.33
2019-03-29T12:53:08.730Z,3.77
2019-03-29T12:55:37.991Z,3.33
2019-03-29T12:58:08.307Z,3.17
2019-03-29T13:00:37.565Z,3.67
2019-03-29T13:03:06.805Z,2.07
2019-03-29T13:05:36.071Z,2.30
2019-03-29T13:08:05.307Z,2.43
2019-03-29T13:10:34.574Z,1.97
2019-03-29T13:13:03.814Z,2.40
2019-03-29T13:15:33.070Z,2.57
2019-03-29T13:18:02.310Z,1.20
2019-03-29T13:20:31.570Z,1.80
2019-03-29T13:23:00.816Z,2.90
2019-03-29T13:25:30.079Z,2.10
2019-03-29T13:27:59.751Z,2.80
2019-03-29T13:30:29.086Z,2.60
2019-03-29T13:32:58.328Z,3.77
2019-03-29T13:35:28.540Z,3.30
2019-03-29T13:37:57.775Z,2.03
2019-03-29T13:40:27.049Z,2.30
2019-03-29T13:42:56.285Z,2.20
2019-03-29T13:45:27.879Z,3.47
2019-03-29T13:47:56.423Z,5.37
2019-03-29T13:50:25.682Z,4.50
2019-03-29T13:52:54.927Z,4.53
2019-03-29T13:55:24.186Z,2.43
2019-03-29T13:57:53.422Z,2.93
2019-03-29T14:00:22.684Z,3.87
2019-03-29T14:02:51.921Z,2.20
2019-03-29T14:05:21.177Z,2.30
2019-03-29T14:07:50.426Z,4.53
2019-03-29T14:10:19.686Z,3.07
2019-03-29T14:12:48.935Z,4.40
2019-03-29T14:15:18.198Z,4.13
2019-03-29T14:17:47.434Z,4.77
2019-03-29T14:20:21.481Z,4.97
2019-03-29T14:22:51.178Z,4.53
2019-03-29T14:25:20.438Z,5.60
2019-03-29T14:27:50.746Z,3.87
2019-03-29T14:30:20.011Z,3.37
2019-03-29T14:32:49.247Z,4.53
2019-03-29T14:35:18.759Z,5.67
2019-03-29T14:37:47.994Z,6.90
2019-03-29T14:40:17.233Z,6.50
2019-03-29T14:42:46.495Z,3.37
2019-03-29T14:45:15.802Z,4.80
2019-03-29T14:47:45.071Z,3.50
2019-03-29T14:50:14.306Z,3.37
2019-03-29T14:52:43.570Z,5.70
2019-03-29T14:55:12.814Z,32.83
2019-03-29T14:57:43.150Z,17.73
2019-03-29T15:00:12.869Z,8.93
2019-03-29T15:02:42.199Z,9.40
2019-03-29T15:05:11.437Z,6.10
2019-03-29T15:07:41.771Z,9.93
2019-03-29T15:10:23.255Z,8.57
2019-03-29T15:12:52.779Z,5.50
2019-03-29T15:15:22.026Z,6.33
2019-03-29T15:17:51.284Z,6.47
2019-03-29T15:20:20.531Z,4.50
2019-03-29T15:22:49.786Z,7.60
2019-03-29T15:25:19.025Z,5.73
2019-03-29T15:27:49.262Z,11.50
2019-03-29T15:30:18.511Z,13.30
2019-03-29T15:32:47.779Z,12.73
2019-03-29T15:35:17.027Z,10.27
2019-03-29T15:37:46.285Z,6.43
2019-03-29T15:40:15.825Z,7.53
2019-03-29T15:42:45.097Z,11.27
2019-03-29T15:45:20.164Z,6.73
2019-03-29T15:47:45.223Z,6.27
2019-03-29T15:50:14.462Z,9.10
2019-03-29T15:52:43.721Z,5.13
2019-03-29T15:55:12.966Z,5.40
2019-03-29T15:57:42.225Z,6.70
2019-03-29T16:00:11.642Z,6.57
2019-03-29T16:02:40.974Z,4.37
2019-03-29T16:05:10.214Z,6.80
2019-03-29T16:07:39.484Z,3.87
2019-03-29T16:10:08.724Z,4.27
2019-03-29T16:12:37.989Z,5.43
2019-03-29T16:15:07.231Z,5.43
2019-03-29T16:17:36.490Z,5.17
2019-03-29T16:20:08.389Z,3.40
2019-03-29T16:22:37.659Z,6.13
2019-03-29T16:25:07.262Z,7.73
2019-03-29T16:27:36.535Z,9.53
2019-03-29T16:30:06.539Z,6.47
2019-03-29T16:32:36.337Z,5.43
2019-03-29T16:35:08.528Z,4.77
2019-03-29T16:37:37.790Z,3.60
2019-03-29T16:40:07.675Z,4.70
2019-03-29T16:42:37.019Z,3.83
2019-03-29T16:45:06.965Z,4.53
2019-03-29T16:47:36.223Z,4.60
2019-03-29T16:50:06.835Z,3.47
2019-03-29T16:52:37.142Z,4.77
2019-03-29T16:55:13.418Z,4.47
2019-03-29T16:57:38.074Z,4.17
2019-03-29T17:00:12.417Z,5.03
2019-03-29T17:02:41.485Z,3.93
2019-03-29T17:05:12.083Z,3.33
2019-03-29T17:07:41.321Z,4.57
2019-03-29T17:10:10.586Z,3.00
2019-03-29T17:12:39.846Z,3.50
2019-03-29T17:15:09.098Z,3.67
2019-03-29T17:17:38.331Z,3.90
2019-03-29T17:20:07.602Z,4.80
2019-03-29T17:22:36.912Z,4.47
2019-03-29T17:25:06.859Z,3.90
2019-03-29T17:27:36.078Z,4.60
2019-03-29T17:30:08.378Z,4.80
2019-03-29T17:32:37.623Z,11.50
2019-03-29T17:35:07.855Z,7.67
2019-03-29T17:37:37.166Z,4.17
2019-03-29T17:40:07.708Z,5.57
2019-03-29T17:42:36.942Z,3.67
2019-03-29T17:45:07.658Z,3.70
2019-03-29T17:47:36.903Z,13.87
2019-03-29T17:50:06.235Z,9.47
2019-03-29T17:52:37.241Z,5.83
2019-03-29T17:55:06.572Z,7.70
2019-03-29T17:57:35.892Z,3.80
2019-03-29T18:00:12.621Z,4.63
2019-03-29T18:02:41.859Z,5.17
2019-03-29T18:05:11.050Z,4.03
2019-03-29T18:07:40.290Z,6.00
2019-03-29T18:10:09.558Z,5.03
2019-03-29T18:12:38.798Z,4.13
2019-03-29T18:15:09.270Z,8.03
2019-03-29T18:17:38.515Z,6.07
2019-03-29T18:20:08.317Z,27.70
2019-03-29T18:22:37.571Z,5.37
2019-03-29T18:25:07.196Z,4.47
2019-03-29T18:27:36.431Z,8.70
2019-03-29T18:30:11.142Z,50.50
2019-03-29T18:32:40.398Z,22.10
2019-03-29T18:35:09.830Z,11.30
2019-03-29T18:37:39.439Z,8.00
2019-03-29T18:40:14.715Z,12.17
2019-03-29T18:42:43.887Z,3.80
2019-03-29T18:45:13.151Z,10.27
2019-03-29T18:47:42.402Z,15.97
2019-03-29T18:50:11.682Z,85.40
2019-03-29T18:52:42.727Z,74.67
2019-03-29T18:55:11.822Z,25.70
2019-03-29T18:57:41.139Z,65.43
2019-03-29T19:00:10.409Z,69.57
2019-03-29T19:02:39.734Z,23.50
2019-03-29T19:05:14.283Z,15.80
2019-03-29T19:07:43.523Z,7.07
2019-03-29T19:10:12.934Z,7.80
2019-03-29T19:12:42.198Z,4.63
2019-03-29T19:15:11.442Z,10.87
2019-03-29T19:17:40.710Z,11.37
2019-03-29T19:20:10.988Z,6.27
2019-03-29T19:22:40.428Z,4.83
2019-03-29T19:25:09.667Z,3.43
2019-03-29T19:27:38.936Z,3.77
2019-03-29T19:30:11.117Z,3.37
2019-03-29T19:32:40.380Z,4.23
2019-03-29T19:35:10.587Z,3.67
2019-03-29T19:37:39.889Z,4.23
2019-03-29T19:40:09.155Z,3.77
2019-03-29T19:42:38.422Z,4.80
2019-03-29T19:45:09.874Z,5.40
2019-03-29T19:47:39.151Z,4.47
2019-03-29T19:50:08.382Z,6.27
2019-03-29T19:52:37.646Z,9.47
2019-03-29T19:55:06.897Z,14.30
2019-03-29T19:57:37.274Z,16.17
2019-03-29T20:00:09.943Z,27.93
2019-03-29T20:02:39.244Z,9.53
2019-03-29T20:05:11.814Z,6.17
2019-03-29T20:07:41.079Z,4.43
2019-03-29T20:10:10.326Z,16.70
2019-03-29T20:12:39.590Z,52.43
2019-03-29T20:15:08.777Z,26.03
2019-03-29T20:17:37.971Z,21.50
2019-03-29T20:20:07.215Z,29.97
2019-03-29T20:22:36.489Z,210.80
2019-03-29T20:25:06.371Z,61.90
2019-03-29T20:27:35.637Z,19.60
2019-03-29T20:30:07.290Z,35.00
2019-03-29T20:32:36.495Z,22.10
2019-03-29T20:35:06.814Z,4.30
2019-03-29T20:37:37.129Z,7.07
2019-03-29T20:40:08.537Z,15.43
2019-03-29T20:42:37.803Z,12.90
2019-03-29T20:45:09.751Z,10.93
2019-03-29T20:47:42.292Z,8.43
2019-03-29T20:50:09.878Z,8.27
2019-03-29T20:52:39.142Z,7.10
2019-03-29T20:55:08.310Z,9.50
2019-03-29T20:57:37.569Z,7.13
2019-03-29T21:00:07.173Z,6.37
2019-03-29T21:02:37.502Z,6.87
2019-03-29T21:05:06.813Z,5.60
2019-03-29T21:07:36.074Z,5.90
2019-03-29T21:10:08.390Z,12.37
2019-03-29T21:12:37.661Z,10.07
2019-03-29T21:15:08.046Z,14.60
2019-03-29T21:17:37.374Z,18.13
2019-03-29T21:20:07.585Z,15.00
2019-03-29T21:22:37.020Z,14.57
2019-03-29T21:25:06.729Z,9.97
2019-03-29T21:27:36.334Z,9.97
2019-03-29T21:30:08.210Z,7.97
2019-03-29T21:32:37.522Z,6.63
2019-03-29T21:35:07.407Z,10.10
2019-03-29T21:37:36.854Z,11.20
2019-03-29T21:40:09.050Z,12.20
2019-03-29T21:42:38.401Z,11.27
2019-03-29T21:45:08.050Z,9.00
2019-03-29T21:47:37.377Z,8.70
2019-03-29T21:50:08.598Z,7.20
2019-03-29T21:52:37.886Z,9.60
2019-03-29T21:55:07.435Z,9.00
2019-03-29T21:57:37.762Z,11.10
2019-03-29T22:00:09.834Z,8.30
2019-03-29T22:02:39.143Z,9.37
2019-03-29T22:05:10.432Z,8.53
2019-03-29T22:07:39.275Z,7.50
2019-03-29T22:10:08.543Z,11.80
2019-03-29T22:12:37.886Z,9.70
2019-03-29T22:15:08.845Z,8.83
2019-03-29T22:17:38.358Z,12.90
2019-03-29T22:20:08.193Z,7.87
2019-03-29T22:22:37.702Z,8.10
2019-03-29T22:25:07.630Z,6.40
2019-03-29T22:27:37.077Z,10.17
2019-03-29T22:30:08.938Z,10.33
2019-03-29T22:32:38.184Z,8.00
2019-03-29T22:35:07.817Z,8.90
2019-03-29T22:37:38.050Z,8.77
2019-03-29T22:40:08.100Z,7.17
2019-03-29T22:42:37.317Z,9.93
2019-03-29T22:45:07.217Z,8.23
2019-03-29T22:47:36.467Z,10.30
2019-03-29T22:50:06.567Z,10.00
2019-03-29T22:52:35.810Z,13.07
2019-03-29T22:55:06.726Z,10.10
2019-03-29T22:57:36.929Z,11.43
2019-03-29T23:00:18.590Z,12.37
2019-03-29T23:02:49.706Z,9.77
2019-03-29T23:05:18.965Z,11.93
2019-03-29T23:07:48.206Z,11.43
2019-03-29T23:10:17.466Z,10.23
2019-03-29T23:12:46.712Z,12.80
2019-03-29T23:15:15.977Z,12.47
2019-03-29T23:17:45.215Z,13.43
2019-03-29T23:20:15.401Z,12.50
2019-03-29T23:22:44.566Z,11.50
2019-03-29T23:25:14.202Z,16.87
2019-03-29T23:27:43.506Z,18.13
2019-03-29T23:30:12.767Z,13.53
2019-03-29T23:32:42.002Z,16.40
2019-03-29T23:35:11.263Z,11.63
2019-03-29T23:37:40.501Z,12.40
2019-03-29T23:40:09.838Z,12.07
2019-03-29T23:42:39.078Z,14.90
2019-03-29T23:45:08.358Z,14.60
2019-03-29T23:47:37.596Z,10.20
2019-03-29T23:50:06.834Z,12.53
2019-03-29T23:52:36.164Z,10.50
2019-03-29T23:55:06.414Z,10.47
2019-03-29T23:57:35.670Z,9.97
